Taiki Maru — JI3464 — position and weather

sailwx.info

Track history (hours):
 
Tides and Currents Weather Stations Pressure Air Temp Water Temp Dewpoint Dewpoint Depression Visibility Wind Speed Wind Dir Waves Ship Positions

Taiki Maru

Last reported at 2016-Jun-30 04:33 UTC. Time now 2016-Jun-30 05:11 UTC.
Position N 35°33' E 139°55'.

Length 93 m; draft 5.9 m.

Type: Cargo ship. MMSI: 431300622.

Date/timePositionNaut miles runAvg speedWind from/ knotsBaromVisibWave heightAir tempDewpointWater temp
2016-Jun-30 04:33N 35°33' E 139°55'8 6.4
2016-Jun-30 03:20N 35°40' E 140°00'0 0.0
2016-Jun-30 02:29N 35°40' E 140°00'0 0.0
2016-Jun-30 01:29N 35°40' E 140°00'0 0.0
2016-Jun-30 00:29N 35°40' E 140°00'0 0.0
2016-Jun-29 23:33N 35°40' E 140°00'2 2.3
2016-Jun-29 22:33N 35°38' E 139°59'3 2.7
2016-Jun-29 21:31N 35°35' E 139°58'0 0.0
2016-Jun-29 20:31N 35°35' E 139°58'0 0.0
2016-Jun-29 19:31N 35°35' E 139°58'0 0.1
2016-Jun-29 18:33N 35°35' E 139°58'9 8.8
2016-Jun-29 17:33N 35°28' E 139°51'1111.4
2016-Jun-29 16:33N 35°19' E 139°44'1111.2
2016-Jun-29 15:33N 35°07' E 139°46'  
2016-Jun-27 08:19N 34°07' E 135°02'5 0.5
2016-Jun-26 23:11N 34°07' E 135°08'2 2.7
2016-Jun-26 22:31N 34°08' E 135°06'0 0.1
2016-Jun-26 21:31N 34°08' E 135°06'0 0.0
2016-Jun-26 20:25N 34°08' E 135°06'0 0.1
2016-Jun-26 19:31N 34°08' E 135°06'0 0.0
2016-Jun-26 18:31N 34°08' E 135°06'0 0.0
2016-Jun-26 17:31N 34°08' E 135°06'0 0.0
2016-Jun-26 16:31N 34°08' E 135°06'0 0.1
2016-Jun-26 15:31N 34°08' E 135°06'0 0.0
2016-Jun-26 14:31N 34°08' E 135°06'0 0.0
2016-Jun-26 13:04N 34°08' E 135°06'0 0.1
2016-Jun-26 12:19N 34°08' E 135°06'0 0.0
2016-Jun-26 11:19N 34°08' E 135°06'0 0.0
2016-Jun-26 10:13N 34°08' E 135°06'0 0.1
2016-Jun-26 09:28N 34°08' E 135°06'0 0.1
2016-Jun-26 08:31N 34°08' E 135°06'0 0.0
2016-Jun-26 07:31N 34°08' E 135°06'0 0.0
2016-Jun-26 06:31N 34°08' E 135°06'0 0.0
2016-Jun-26 05:28N 34°08' E 135°06'0 0.0
2016-Jun-26 04:31N 34°08' E 135°06'0 0.0
2016-Jun-26 03:31N 34°08' E 135°06'0 0.1
2016-Jun-26 02:31N 34°08' E 135°06'0 0.0
2016-Jun-26 01:31N 34°08' E 135°06'0 0.0
2016-Jun-26 00:31N 34°08' E 135°06'0 0.0
2016-Jun-25 23:22N 34°08' E 135°06'0 0.0
2016-Jun-25 22:31N 34°08' E 135°06'0 0.0
2016-Jun-25 21:31N 34°08' E 135°06'0 0.1
2016-Jun-25 20:32N 34°08' E 135°06'6 6.2
2016-Jun-25 19:33N 34°14' E 135°07'1 1.0
2016-Jun-25 18:31N 34°14' E 135°08'0 0.0
2016-Jun-25 17:22N 34°14' E 135°08'0 0.1
2016-Jun-25 16:31N 34°14' E 135°08'0 0.0
2016-Jun-25 15:31N 34°14' E 135°08'0 0.0
2016-Jun-25 14:31N 34°14' E 135°08'0 0.0
2016-Jun-25 13:31N 34°14' E 135°08'0 0.0
2016-Jun-25 12:33N 34°14' E 135°08'1 1.4
2016-Jun-25 11:33N 34°14' E 135°06'1 1.1
2016-Jun-25 10:33N 34°15' E 135°05'8 8.2
2016-Jun-25 09:33N 34°07' E 135°02'7 0.2
2016-Jun-23 20:24N 34°02' E 134°55'1214.6
2016-Jun-23 19:34N 34°14' E 134°58'1414.5
2016-Jun-23 18:34N 34°27' E 135°06'1414.4
2016-Jun-23 17:33N 34°36' E 135°20'7 6.0
2016-Jun-23 16:23N 34°40' E 135°27'0 0.0
2016-Jun-23 15:23N 34°40' E 135°27'0 0.0
2016-Jun-23 14:23N 34°40' E 135°27'0 0.0
2016-Jun-23 13:29N 34°40' E 135°27'0 0.0
2016-Jun-23 12:17N 34°40' E 135°27'0 0.0
2016-Jun-23 11:23N 34°40' E 135°27'0 0.0
2016-Jun-23 10:17N 34°40' E 135°27'0 0.0
2016-Jun-23 09:29N 34°40' E 135°27'0 0.0
2016-Jun-23 08:29N 34°40' E 135°27'0 0.0
2016-Jun-23 07:29N 34°40' E 135°27'7 3.6
2016-Jun-23 05:28N 34°36' E 135°19'0 0.1
2016-Jun-23 04:28N 34°36' E 135°19'0 0.0
2016-Jun-23 03:28N 34°36' E 135°19'0 0.0
2016-Jun-23 02:28N 34°36' E 135°19'0 0.0
2016-Jun-23 01:16N 34°36' E 135°19'0 0.0
2016-Jun-23 00:28N 34°36' E 135°19'0 0.0
2016-Jun-22 23:22N 34°36' E 135°19'0 0.0
2016-Jun-22 22:28N 34°36' E 135°19'0 0.0
2016-Jun-22 21:28N 34°36' E 135°19'0 0.0
2016-Jun-22 20:22N 34°36' E 135°19'0 0.2
2016-Jun-22 19:34N 34°37' E 135°19'1110.9
2016-Jun-22 18:33N 34°35' E 135°06'1413.7
2016-Jun-22 17:33N 34°38' E 134°50'7 0.5
2016-Jun-22 04:18N 34°40' E 134°42'1012.8
2016-Jun-22 03:33N 34°38' E 134°54'1111.0
2016-Jun-22 02:33N 34°32' E 135°05'1514.2
2016-Jun-22 01:29N 34°18' E 134°59'1314.0
2016-Jun-22 00:32N 34°05' E 134°59'  
Track history (hours):
 
Tides and Currents Weather Stations Pressure Air Temp Water Temp Dewpoint Dewpoint Depression Visibility Wind Speed Wind Dir Waves Ship Positions

Taiki Maru

Last reported at 2016-Jun-30 04:33 UTC. Time now 2016-Jun-30 05:11 UTC.
Position N 35°33' E 139°55'.

Length 93 m; draft 5.9 m.

Type: Cargo ship. MMSI: 431300622.

Date/timePositionNaut miles runAvg speedWind from/ knotsBaromVisibWave heightAir tempDewpointWater temp
2016-Jun-30 04:33N 35°33' E 139°55'8 6.4
2016-Jun-30 03:20N 35°40' E 140°00'0 0.0
2016-Jun-30 02:29N 35°40' E 140°00'0 0.0
2016-Jun-30 01:29N 35°40' E 140°00'0 0.0
2016-Jun-30 00:29N 35°40' E 140°00'0 0.0
2016-Jun-29 23:33N 35°40' E 140°00'2 2.3
2016-Jun-29 22:33N 35°38' E 139°59'3 2.7
2016-Jun-29 21:31N 35°35' E 139°58'0 0.0
2016-Jun-29 20:31N 35°35' E 139°58'0 0.0
2016-Jun-29 19:31N 35°35' E 139°58'0 0.1
2016-Jun-29 18:33N 35°35' E 139°58'9 8.8
2016-Jun-29 17:33N 35°28' E 139°51'1111.4
2016-Jun-29 16:33N 35°19' E 139°44'1111.2
2016-Jun-29 15:33N 35°07' E 139°46'  
2016-Jun-27 08:19N 34°07' E 135°02'5 0.5
2016-Jun-26 23:11N 34°07' E 135°08'2 2.7
2016-Jun-26 22:31N 34°08' E 135°06'0 0.1
2016-Jun-26 21:31N 34°08' E 135°06'0 0.0
2016-Jun-26 20:25N 34°08' E 135°06'0 0.1
2016-Jun-26 19:31N 34°08' E 135°06'0 0.0
2016-Jun-26 18:31N 34°08' E 135°06'0 0.0
2016-Jun-26 17:31N 34°08' E 135°06'0 0.0
2016-Jun-26 16:31N 34°08' E 135°06'0 0.1
2016-Jun-26 15:31N 34°08' E 135°06'0 0.0
2016-Jun-26 14:31N 34°08' E 135°06'0 0.0
2016-Jun-26 13:04N 34°08' E 135°06'0 0.1
2016-Jun-26 12:19N 34°08' E 135°06'0 0.0
2016-Jun-26 11:19N 34°08' E 135°06'0 0.0
2016-Jun-26 10:13N 34°08' E 135°06'0 0.1
2016-Jun-26 09:28N 34°08' E 135°06'0 0.1
2016-Jun-26 08:31N 34°08' E 135°06'0 0.0
2016-Jun-26 07:31N 34°08' E 135°06'0 0.0
2016-Jun-26 06:31N 34°08' E 135°06'0 0.0
2016-Jun-26 05:28N 34°08' E 135°06'0 0.0
2016-Jun-26 04:31N 34°08' E 135°06'0 0.0
2016-Jun-26 03:31N 34°08' E 135°06'0 0.1
2016-Jun-26 02:31N 34°08' E 135°06'0 0.0
2016-Jun-26 01:31N 34°08' E 135°06'0 0.0
2016-Jun-26 00:31N 34°08' E 135°06'0 0.0
2016-Jun-25 23:22N 34°08' E 135°06'0 0.0
2016-Jun-25 22:31N 34°08' E 135°06'0 0.0
2016-Jun-25 21:31N 34°08' E 135°06'0 0.1
2016-Jun-25 20:32N 34°08' E 135°06'6 6.2
2016-Jun-25 19:33N 34°14' E 135°07'1 1.0
2016-Jun-25 18:31N 34°14' E 135°08'0 0.0
2016-Jun-25 17:22N 34°14' E 135°08'0 0.1
2016-Jun-25 16:31N 34°14' E 135°08'0 0.0
2016-Jun-25 15:31N 34°14' E 135°08'0 0.0
2016-Jun-25 14:31N 34°14' E 135°08'0 0.0
2016-Jun-25 13:31N 34°14' E 135°08'0 0.0
2016-Jun-25 12:33N 34°14' E 135°08'1 1.4
2016-Jun-25 11:33N 34°14' E 135°06'1 1.1
2016-Jun-25 10:33N 34°15' E 135°05'8 8.2
2016-Jun-25 09:33N 34°07' E 135°02'7 0.2
2016-Jun-23 20:24N 34°02' E 134°55'1214.6
2016-Jun-23 19:34N 34°14' E 134°58'1414.5
2016-Jun-23 18:34N 34°27' E 135°06'1414.4
2016-Jun-23 17:33N 34°36' E 135°20'7 6.0
2016-Jun-23 16:23N 34°40' E 135°27'0 0.0
2016-Jun-23 15:23N 34°40' E 135°27'0 0.0
2016-Jun-23 14:23N 34°40' E 135°27'0 0.0
2016-Jun-23 13:29N 34°40' E 135°27'0 0.0
2016-Jun-23 12:17N 34°40' E 135°27'0 0.0
2016-Jun-23 11:23N 34°40' E 135°27'0 0.0
2016-Jun-23 10:17N 34°40' E 135°27'0 0.0
2016-Jun-23 09:29N 34°40' E 135°27'0 0.0
2016-Jun-23 08:29N 34°40' E 135°27'0 0.0
2016-Jun-23 07:29N 34°40' E 135°27'7 3.6
2016-Jun-23 05:28N 34°36' E 135°19'0 0.1
2016-Jun-23 04:28N 34°36' E 135°19'0 0.0
2016-Jun-23 03:28N 34°36' E 135°19'0 0.0
2016-Jun-23 02:28N 34°36' E 135°19'0 0.0
2016-Jun-23 01:16N 34°36' E 135°19'0 0.0
2016-Jun-23 00:28N 34°36' E 135°19'0 0.0
2016-Jun-22 23:22N 34°36' E 135°19'0 0.0
2016-Jun-22 22:28N 34°36' E 135°19'0 0.0
2016-Jun-22 21:28N 34°36' E 135°19'0 0.0
2016-Jun-22 20:22N 34°36' E 135°19'0 0.2
2016-Jun-22 19:34N 34°37' E 135°19'1110.9
2016-Jun-22 18:33N 34°35' E 135°06'1413.7
2016-Jun-22 17:33N 34°38' E 134°50'7 0.5
2016-Jun-22 04:18N 34°40' E 134°42'1012.8
2016-Jun-22 03:33N 34°38' E 134°54'1111.0
2016-Jun-22 02:33N 34°32' E 135°05'1514.2
2016-Jun-22 01:29N 34°18' E 134°59'1314.0
2016-Jun-22 00:32N 34°05' E 134°59'  

Dump ship's entire track history